Stations météo

réclame
Mon MeteoGroup
London/Gatwick, Grande-Bretagne (3776): Température de l'air & dewpoint: 12.01.2019 11:00:00 - 18.01.2019 11:00:00 (GMT)London/Gatwick, Grande-Bretagne (3776): Vitesse du vent: 12.01.2019 11:00:00 - 18.01.2019 11:00:00 (GMT)London/Gatwick, Grande-Bretagne (3776): Direction du vent: 12.01.2019 11:00:00 - 18.01.2019 11:00:00 (GMT)London/Gatwick, Grande-Bretagne (3776): visibility: 12.01.2019 11:00:00 - 18.01.2019 11:00:00 (GMT)
Date & Time tt [°C] td [°C] ff [km/h] ff [knt] dd vv [km]
18.01.2019 11:00:00 5,0 0,0 11 6 SSE 10
18.01.2019 10:00:00 1,0 -1,0 8 4 E 10
18.01.2019 09:00:00 -2,0 -3,0 4 2 E 10
18.01.2019 08:00:00 -2,0 -3,0 5 3 ENE 10
18.01.2019 07:00:00 -2,0 -2,0 2 1 - 10
18.01.2019 06:00:00 -2,0 -3,0 2 1 - 10
18.01.2019 05:00:00 -2,0 -3,0 2 1 E 10
18.01.2019 04:00:00 -2,0 -3,0 2 1 - 10
18.01.2019 03:00:00 -1,0 -3,0 2 1 - 10
18.01.2019 02:00:00 -1,0 -3,0 4 2 SW 10
18.01.2019 01:00:00 -1,0 -3,0 2 1 SSW 10
18.01.2019 00:00:00 -1,0 -3,0 5 3 SSW 10
17.01.2019 23:00:00 0,0 -3,0 2 1 SW 10
17.01.2019 22:00:00 1,0 -4,0 5 3 - 10
17.01.2019 21:00:00 1,0 -4,0 8 4 NW 10
17.01.2019 20:00:00 1,0 -4,0 5 3 WSW 10
17.01.2019 19:00:00 2,0 -4,0 5 3 - 10
17.01.2019 18:00:00 3,0 -4,0 13 7 WNW 10
17.01.2019 17:00:00 3,0 -4,0 11 6 WNW 10
17.01.2019 16:00:00 4,0 -4,0 21 11 NW 10
17.01.2019 15:00:00 4,0 -4,0 22 12 NW 10
17.01.2019 14:00:00 4,0 -3,0 24 13 NW 10
17.01.2019 13:00:00 4,0 -2,0 24 13 NW 10
17.01.2019 12:00:00 4,0 -1,0 24 13 WNW 10
17.01.2019 11:00:00 3,0 -1,0 18 10 NW 10
17.01.2019 10:00:00 - - - - - -
17.01.2019 09:00:00 3,0 2,0 29 16 NW 8
17.01.2019 08:00:00 4,0 2,0 16 9 WNW 10
17.01.2019 07:00:00 4,0 2,0 16 9 WNW 10
17.01.2019 06:00:00 4,0 3,0 24 13 NW 10
17.01.2019 05:00:00 4,0 4,0 18 10 NW 10
17.01.2019 04:00:00 5,0 4,0 16 9 WNW 10
17.01.2019 03:00:00 3,0 3,0 2 1 WSW 6
17.01.2019 02:00:00 3,0 3,0 5 3 WSW 8
17.01.2019 01:00:00 4,0 4,0 5 3 - 8
17.01.2019 00:00:00 3,0 3,0 4 2 S 8
16.01.2019 23:00:00 3,0 3,0 5 3 S 8
16.01.2019 22:00:00 4,0 4,0 11 6 SW 10
16.01.2019 21:00:00 5,0 4,0 15 8 WSW 10
16.01.2019 20:00:00 5,0 4,0 13 7 WSW 10
16.01.2019 19:00:00 6,0 4,0 11 6 W 10
16.01.2019 18:00:00 6,0 5,0 9 5 WNW 10
16.01.2019 17:00:00 6,0 6,0 21 11 NW 10
16.01.2019 16:00:00 9,0 8,0 21 11 SW 10
16.01.2019 15:00:00 9,0 8,0 24 13 SW 10
16.01.2019 14:00:00 9,0 8,0 22 12 SSW 5
16.01.2019 13:00:00 - - - - - -
16.01.2019 12:00:00 8,0 7,0 21 11 SSW 6
16.01.2019 11:00:00 8,0 7,0 21 11 SSW 6
16.01.2019 10:00:00 8,0 7,0 24 13 SSW 5
16.01.2019 09:00:00 8,0 7,0 18 10 SSW 6
16.01.2019 08:00:00 8,0 7,0 21 11 SSW 5
16.01.2019 07:00:00 8,0 7,0 18 10 SW 7
16.01.2019 06:00:00 8,0 7,0 21 11 SW 10
16.01.2019 05:00:00 8,0 7,0 18 10 SW 10
16.01.2019 04:00:00 8,0 7,0 18 10 SSW 7
16.01.2019 03:00:00 8,0 7,0 16 9 SW 5
16.01.2019 02:00:00 8,0 7,0 18 10 SW 10
16.01.2019 01:00:00 8,0 7,0 15 8 SW 10
16.01.2019 00:00:00 8,0 7,0 16 9 SW 10
15.01.2019 23:00:00 8,0 7,0 15 8 SW 10
15.01.2019 22:00:00 8,0 7,0 15 8 SSW 10
15.01.2019 21:00:00 8,0 6,0 13 7 SSW 10
15.01.2019 20:00:00 9,0 5,0 13 7 SW 10
15.01.2019 19:00:00 9,0 6,0 15 8 SW 10
15.01.2019 18:00:00 9,0 6,0 13 7 SW 10
15.01.2019 17:00:00 9,0 6,0 15 8 SW 10
15.01.2019 16:00:00 9,0 6,0 13 7 SW 10
15.01.2019 15:00:00 9,0 6,0 13 7 WSW 10
15.01.2019 14:00:00 9,0 6,0 15 8 SW 10
15.01.2019 13:00:00 9,0 6,0 18 10 WSW 10
15.01.2019 12:00:00 8,0 6,0 18 10 WSW 10
15.01.2019 11:00:00 7,0 5,0 15 8 SW 10
15.01.2019 10:00:00 6,0 4,0 13 7 SW 10
15.01.2019 09:00:00 6,0 4,0 13 7 SW 10
15.01.2019 08:00:00 4,0 3,0 9 5 SW 10
15.01.2019 07:00:00 4,0 2,0 11 6 SW 10
15.01.2019 06:00:00 3,0 2,0 8 4 SW 10
15.01.2019 05:00:00 2,0 1,0 5 3 SSW 10
15.01.2019 04:00:00 3,0 1,0 11 6 SW 10
15.01.2019 03:00:00 3,0 1,0 9 5 SW 10
15.01.2019 02:00:00 3,0 1,0 9 5 WSW 10
15.01.2019 01:00:00 3,0 1,0 8 4 SSW 10
15.01.2019 00:00:00 5,0 1,0 9 5 WSW 10
14.01.2019 23:00:00 4,0 0,0 8 4 WSW 10
14.01.2019 22:00:00 4,0 0,0 13 7 WSW 10
14.01.2019 21:00:00 7,0 2,0 5 3 SW 10
14.01.2019 20:00:00 7,0 2,0 11 6 WSW 10
14.01.2019 19:00:00 7,0 3,0 8 4 WSW 10
14.01.2019 18:00:00 8,0 3,0 8 4 W 10
14.01.2019 17:00:00 8,0 3,0 15 8 WNW 10
14.01.2019 16:00:00 9,0 3,0 16 9 NW 10
14.01.2019 15:00:00 9,0 2,0 18 10 NW 10
14.01.2019 14:00:00 9,0 3,0 21 11 NW 10
14.01.2019 13:00:00 9,0 3,0 21 11 NW 10
14.01.2019 12:00:00 8,0 3,0 21 11 NW 10
14.01.2019 11:00:00 8,0 3,0 21 11 WNW 10
14.01.2019 10:00:00 8,0 3,0 22 12 NW 10
14.01.2019 09:00:00 7,0 3,0 22 12 NW 10
14.01.2019 08:00:00 7,0 2,0 15 8 WNW 10
14.01.2019 07:00:00 7,0 2,0 18 10 NW 10
14.01.2019 06:00:00 7,0 2,0 21 11 WNW 10
14.01.2019 05:00:00 8,0 2,0 16 9 WNW 10
14.01.2019 04:00:00 8,0 2,0 13 7 WNW 10
14.01.2019 03:00:00 8,0 2,0 15 8 NW 10
14.01.2019 02:00:00 8,0 2,0 16 9 NW 10
14.01.2019 01:00:00 8,0 2,0 24 13 WNW 10
14.01.2019 00:00:00 9,0 2,0 24 13 NW 10
13.01.2019 23:00:00 9,0 3,0 18 10 NW 10
13.01.2019 22:00:00 10,0 2,0 28 15 NNW 10
13.01.2019 21:00:00 11,0 5,0 26 14 NW 10
13.01.2019 20:00:00 10,0 7,0 16 9 W 10
13.01.2019 19:00:00 10,0 8,0 24 13 W 10
13.01.2019 18:00:00 10,0 8,0 22 12 WSW 10
13.01.2019 17:00:00 10,0 8,0 28 15 WSW 10
13.01.2019 16:00:00 11,0 8,0 35 19 W 10
13.01.2019 15:00:00 11,0 8,0 34 18 W 10
13.01.2019 14:00:00 12,0 8,0 29 16 W 10
13.01.2019 13:00:00 12,0 8,0 31 17 W 10
13.01.2019 12:00:00 11,0 7,0 26 14 W 10
13.01.2019 11:00:00 10,0 7,0 24 13 W 10
13.01.2019 10:00:00 10,0 7,0 24 13 W 10
13.01.2019 09:00:00 10,0 7,0 22 12 W 10
13.01.2019 08:00:00 10,0 8,0 21 11 W 10
13.01.2019 07:00:00 10,0 8,0 22 12 W 10
13.01.2019 06:00:00 10,0 8,0 21 11 W 10
13.01.2019 05:00:00 - - - - - -
13.01.2019 04:00:00 9,0 7,0 18 10 W 10
13.01.2019 03:00:00 9,0 7,0 21 11 W 10
13.01.2019 02:00:00 9,0 7,0 15 8 WSW 10
13.01.2019 01:00:00 8,0 7,0 16 9 W 10
13.01.2019 00:00:00 9,0 7,0 18 10 W 10
12.01.2019 23:00:00 9,0 7,0 18 10 W 10
12.01.2019 22:00:00 8,0 6,0 18 10 W 10
12.01.2019 21:00:00 8,0 7,0 21 11 W 10
12.01.2019 20:00:00 - - - - - -
12.01.2019 19:00:00 9,0 6,0 13 7 W 10
12.01.2019 18:00:00 9,0 6,0 11 6 WSW 10
12.01.2019 17:00:00 9,0 6,0 21 11 W 10
12.01.2019 16:00:00 10,0 6,0 26 14 WNW 10
12.01.2019 15:00:00 10,0 6,0 24 13 WNW 10
12.01.2019 14:00:00 10,0 7,0 18 10 W 10
12.01.2019 13:00:00 10,0 7,0 24 13 W 10
12.01.2019 12:00:00 10,0 7,0 26 14 W 10
12.01.2019 11:00:00 9,0 7,0 22 12 WSW 10

tt = Température de l'air
td = dewpoint
ff = Vitesse du vent
dd = Direction du vent
vv = visibility

stations d'obs. à proximité